sensor_id;sensor_type;location;lat;lon;timestamp;P1;durP1;ratioP1;P2;durP2;ratioP2
51438;SDS011;38816;51.142;-0.974;2022-10-18T00:00:47;12.25;;;2.83;;
51438;SDS011;38816;51.142;-0.974;2022-10-18T00:03:13;6.95;;;2.83;;
51438;SDS011;38816;51.142;-0.974;2022-10-18T00:05:38;17.25;;;3.88;;
51438;SDS011;38816;51.142;-0.974;2022-10-18T00:08:04;12.68;;;3.60;;
51438;SDS011;38816;51.142;-0.974;2022-10-18T00:10:29;19.95;;;3.88;;
51438;SDS011;38816;51.142;-0.974;2022-10-18T00:12:54;20.23;;;4.00;;
51438;SDS011;38816;51.142;-0.974;2022-10-18T00:15:20;10.75;;;3.60;;
51438;SDS011;38816;51.142;-0.974;2022-10-18T00:17:45;16.67;;;3.65;;
51438;SDS011;38816;51.142;-0.974;2022-10-18T00:20:11;16.60;;;3.63;;
51438;SDS011;38816;51.142;-0.974;2022-10-18T00:22:37;8.55;;;3.17;;
51438;SDS011;38816;51.142;-0.974;2022-10-18T00:25:04;10.30;;;3.00;;
51438;SDS011;38816;51.142;-0.974;2022-10-18T00:27:31;14.68;;;3.42;;
51438;SDS011;38816;51.142;-0.974;2022-10-18T00:29:57;9.02;;;3.40;;
51438;SDS011;38816;51.142;-0.974;2022-10-18T00:32:23;8.90;;;2.92;;
51438;SDS011;38816;51.142;-0.974;2022-10-18T00:34:49;6.03;;;2.85;;
51438;SDS011;38816;51.142;-0.974;2022-10-18T00:37:15;4.57;;;2.45;;
51438;SDS011;38816;51.142;-0.974;2022-10-18T00:39:40;9.85;;;3.25;;
51438;SDS011;38816;51.142;-0.974;2022-10-18T00:42:06;12.10;;;3.40;;
51438;SDS011;38816;51.142;-0.974;2022-10-18T00:47:01;10.90;;;2.58;;
51438;SDS011;38816;51.142;-0.974;2022-10-18T00:49:36;12.18;;;2.30;;
51438;SDS011;38816;51.142;-0.974;2022-10-18T00:52:28;12.75;;;2.90;;
51438;SDS011;38816;51.142;-0.974;2022-10-18T00:54:55;14.18;;;2.92;;
51438;SDS011;38816;51.142;-0.974;2022-10-18T00:57:21;14.07;;;2.83;;
51438;SDS011;38816;51.142;-0.974;2022-10-18T00:59:48;19.33;;;3.25;;
51438;SDS011;38816;51.142;-0.974;2022-10-18T01:02:13;10.57;;;3.20;;
51438;SDS011;38816;51.142;-0.974;2022-10-18T01:04:42;11.63;;;3.45;;
51438;SDS011;38816;51.142;-0.974;2022-10-18T01:18:40;10.32;;;3.35;;
51438;SDS011;38816;51.142;-0.974;2022-10-18T01:23:32;16.35;;;3.20;;
51438;SDS011;38816;51.142;-0.974;2022-10-18T01:31:33;13.82;;;3.10;;
51438;SDS011;38816;51.142;-0.974;2022-10-18T01:34:06;12.32;;;3.35;;
51438;SDS011;38816;51.142;-0.974;2022-10-18T01:36:34;9.50;;;3.35;;
51438;SDS011;38816;51.142;-0.974;2022-10-18T01:39:04;9.27;;;3.13;;
51438;SDS011;38816;51.142;-0.974;2022-10-18T01:41:33;15.63;;;3.60;;
51438;SDS011;38816;51.142;-0.974;2022-10-18T01:44:03;11.45;;;2.90;;
51438;SDS011;38816;51.142;-0.974;2022-10-18T01:46:32;9.80;;;2.78;;
51438;SDS011;38816;51.142;-0.974;2022-10-18T01:48:58;7.03;;;2.58;;
51438;SDS011;38816;51.142;-0.974;2022-10-18T01:51:30;10.43;;;2.83;;
51438;SDS011;38816;51.142;-0.974;2022-10-18T02:04:19;9.13;;;4.03;;
51438;SDS011;38816;51.142;-0.974;2022-10-18T02:07:14;15.32;;;4.38;;
51438;SDS011;38816;51.142;-0.974;2022-10-18T02:09:50;10.95;;;4.38;;
51438;SDS011;38816;51.142;-0.974;2022-10-18T02:12:26;14.65;;;3.78;;
51438;SDS011;38816;51.142;-0.974;2022-10-18T02:14:54;35.33;;;4.28;;
51438;SDS011;38816;51.142;-0.974;2022-10-18T02:17:21;51.90;;;4.22;;
51438;SDS011;38816;51.142;-0.974;2022-10-18T02:19:51;40.80;;;4.55;;
51438;SDS011;38816;51.142;-0.974;2022-10-18T02:22:19;15.40;;;3.60;;
51438;SDS011;38816;51.142;-0.974;2022-10-18T02:24:47;15.90;;;4.30;;
51438;SDS011;38816;51.142;-0.974;2022-10-18T02:27:15;22.70;;;4.32;;
51438;SDS011;38816;51.142;-0.974;2022-10-18T02:29:41;25.48;;;5.00;;
51438;SDS011;38816;51.142;-0.974;2022-10-18T02:32:12;69.13;;;4.32;;
51438;SDS011;38816;51.142;-0.974;2022-10-18T02:34:41;50.80;;;4.53;;
51438;SDS011;38816;51.142;-0.974;2022-10-18T02:37:10;45.92;;;4.38;;
51438;SDS011;38816;51.142;-0.974;2022-10-18T02:39:39;27.65;;;4.15;;
51438;SDS011;38816;51.142;-0.974;2022-10-18T02:42:09;64.10;;;4.25;;
51438;SDS011;38816;51.142;-0.974;2022-10-18T02:44:36;29.83;;;4.32;;
51438;SDS011;38816;51.142;-0.974;2022-10-18T02:47:03;48.75;;;4.53;;
51438;SDS011;38816;51.142;-0.974;2022-10-18T02:49:29;41.15;;;4.47;;
51438;SDS011;38816;51.142;-0.974;2022-10-18T02:51:55;86.88;;;4.90;;
51438;SDS011;38816;51.142;-0.974;2022-10-18T02:54:21;41.40;;;4.82;;
51438;SDS011;38816;51.142;-0.974;2022-10-18T02:56:47;18.98;;;4.43;;
51438;SDS011;38816;51.142;-0.974;2022-10-18T02:59:12;20.60;;;4.65;;
51438;SDS011;38816;51.142;-0.974;2022-10-18T03:01:38;13.38;;;4.10;;
51438;SDS011;38816;51.142;-0.974;2022-10-18T03:04:03;14.68;;;3.65;;
51438;SDS011;38816;51.142;-0.974;2022-10-18T03:06:29;29.77;;;3.67;;
51438;SDS011;38816;51.142;-0.974;2022-10-18T03:08:55;28.60;;;4.03;;
51438;SDS011;38816;51.142;-0.974;2022-10-18T03:11:20;57.50;;;4.38;;
51438;SDS011;38816;51.142;-0.974;2022-10-18T03:13:46;47.75;;;3.55;;
51438;SDS011;38816;51.142;-0.974;2022-10-18T03:16:12;44.92;;;3.90;;
51438;SDS011;38816;51.142;-0.974;2022-10-18T03:18:37;17.92;;;3.78;;
51438;SDS011;38816;51.142;-0.974;2022-10-18T03:21:06;36.75;;;3.95;;
51438;SDS011;38816;51.142;-0.974;2022-10-18T03:23:31;19.75;;;3.00;;
51438;SDS011;38816;51.142;-0.974;2022-10-18T03:25:57;53.28;;;4.78;;
51438;SDS011;38816;51.142;-0.974;2022-10-18T03:28:23;56.10;;;4.80;;
51438;SDS011;38816;51.142;-0.974;2022-10-18T03:30:48;23.13;;;4.18;;
51438;SDS011;38816;51.142;-0.974;2022-10-18T03:33:13;20.90;;;4.00;;
51438;SDS011;38816;51.142;-0.974;2022-10-18T03:35:39;36.20;;;4.28;;
51438;SDS011;38816;51.142;-0.974;2022-10-18T03:38:04;27.10;;;3.92;;
51438;SDS011;38816;51.142;-0.974;2022-10-18T03:40:30;20.88;;;3.40;;
51438;SDS011;38816;51.142;-0.974;2022-10-18T03:42:55;14.50;;;3.13;;
51438;SDS011;38816;51.142;-0.974;2022-10-18T03:45:21;12.85;;;3.10;;
51438;SDS011;38816;51.142;-0.974;2022-10-18T03:47:46;10.65;;;3.60;;
51438;SDS011;38816;51.142;-0.974;2022-10-18T03:50:11;14.50;;;3.17;;
51438;SDS011;38816;51.142;-0.974;2022-10-18T03:52:37;9.55;;;2.15;;
51438;SDS011;38816;51.142;-0.974;2022-10-18T03:55:02;11.85;;;2.90;;
51438;SDS011;38816;51.142;-0.974;2022-10-18T03:57:28;13.70;;;3.05;;
51438;SDS011;38816;51.142;-0.974;2022-10-18T03:59:53;19.40;;;4.50;;
51438;SDS011;38816;51.142;-0.974;2022-10-18T04:02:19;12.45;;;3.80;;
51438;SDS011;38816;51.142;-0.974;2022-10-18T04:04:44;7.07;;;2.83;;
51438;SDS011;38816;51.142;-0.974;2022-10-18T04:07:10;15.18;;;3.50;;
51438;SDS011;38816;51.142;-0.974;2022-10-18T04:09:35;15.70;;;3.92;;
51438;SDS011;38816;51.142;-0.974;2022-10-18T04:12:00;14.30;;;3.13;;
51438;SDS011;38816;51.142;-0.974;2022-10-18T04:14:26;4.72;;;2.50;;
51438;SDS011;38816;51.142;-0.974;2022-10-18T04:16:51;12.93;;;2.80;;
51438;SDS011;38816;51.142;-0.974;2022-10-18T04:19:17;12.48;;;3.05;;
51438;SDS011;38816;51.142;-0.974;2022-10-18T04:21:42;7.95;;;2.80;;
51438;SDS011;38816;51.142;-0.974;2022-10-18T04:24:08;6.55;;;2.70;;
51438;SDS011;38816;51.142;-0.974;2022-10-18T04:26:33;9.60;;;2.58;;
51438;SDS011;38816;51.142;-0.974;2022-10-18T04:28:58;5.10;;;2.63;;
51438;SDS011;38816;51.142;-0.974;2022-10-18T04:31:24;8.20;;;2.80;;
51438;SDS011;38816;51.142;-0.974;2022-10-18T04:33:49;29.23;;;3.22;;
51438;SDS011;38816;51.142;-0.974;2022-10-18T04:36:15;5.47;;;2.78;;
51438;SDS011;38816;51.142;-0.974;2022-10-18T04:38:40;13.55;;;3.70;;
51438;SDS011;38816;51.142;-0.974;2022-10-18T04:41:06;11.48;;;3.30;;
51438;SDS011;38816;51.142;-0.974;2022-10-18T04:43:31;8.50;;;3.55;;
51438;SDS011;38816;51.142;-0.974;2022-10-18T04:45:56;16.08;;;3.80;;
51438;SDS011;38816;51.142;-0.974;2022-10-18T04:48:22;8.30;;;3.13;;
51438;SDS011;38816;51.142;-0.974;2022-10-18T04:50:47;23.58;;;3.70;;
51438;SDS011;38816;51.142;-0.974;2022-10-18T04:53:14;13.25;;;4.10;;
51438;SDS011;38816;51.142;-0.974;2022-10-18T04:55:44;27.50;;;6.63;;
51438;SDS011;38816;51.142;-0.974;2022-10-18T04:58:10;24.90;;;6.68;;
51438;SDS011;38816;51.142;-0.974;2022-10-18T05:00:36;25.13;;;7.28;;
51438;SDS011;38816;51.142;-0.974;2022-10-18T05:03:01;24.00;;;6.47;;
51438;SDS011;38816;51.142;-0.974;2022-10-18T05:05:27;33.95;;;5.35;;
51438;SDS011;38816;51.142;-0.974;2022-10-18T05:07:52;38.63;;;5.05;;
51438;SDS011;38816;51.142;-0.974;2022-10-18T05:10:17;28.55;;;4.20;;
51438;SDS011;38816;51.142;-0.974;2022-10-18T05:12:43;17.77;;;3.67;;
51438;SDS011;38816;51.142;-0.974;2022-10-18T05:15:08;28.90;;;3.80;;
51438;SDS011;38816;51.142;-0.974;2022-10-18T05:17:34;14.98;;;3.22;;
51438;SDS011;38816;51.142;-0.974;2022-10-18T05:20:00;27.67;;;3.15;;
51438;SDS011;38816;51.142;-0.974;2022-10-18T05:22:25;34.03;;;3.00;;
51438;SDS011;38816;51.142;-0.974;2022-10-18T05:24:51;30.63;;;3.13;;
51438;SDS011;38816;51.142;-0.974;2022-10-18T05:27:16;19.83;;;2.58;;
51438;SDS011;38816;51.142;-0.974;2022-10-18T05:29:42;21.67;;;2.83;;
51438;SDS011;38816;51.142;-0.974;2022-10-18T05:32:07;13.55;;;2.50;;
51438;SDS011;38816;51.142;-0.974;2022-10-18T05:34:32;84.32;;;3.60;;
51438;SDS011;38816;51.142;-0.974;2022-10-18T05:36:58;46.20;;;2.72;;
51438;SDS011;38816;51.142;-0.974;2022-10-18T05:39:24;444.73;;;13.18;;
51438;SDS011;38816;51.142;-0.974;2022-10-18T05:41:49;99.72;;;3.45;;
51438;SDS011;38816;51.142;-0.974;2022-10-18T05:44:15;34.78;;;1.98;;
51438;SDS011;38816;51.142;-0.974;2022-10-18T05:46:40;8.20;;;1.67;;
51438;SDS011;38816;51.142;-0.974;2022-10-18T05:49:06;10.38;;;2.00;;
51438;SDS011;38816;51.142;-0.974;2022-10-18T05:51:31;3.30;;;1.88;;
51438;SDS011;38816;51.142;-0.974;2022-10-18T05:53:57;10.88;;;2.72;;
51438;SDS011;38816;51.142;-0.974;2022-10-18T05:56:22;8.13;;;3.03;;
51438;SDS011;38816;51.142;-0.974;2022-10-18T05:58:49;10.65;;;3.17;;
51438;SDS011;38816;51.142;-0.974;2022-10-18T06:01:15;12.75;;;3.63;;
51438;SDS011;38816;51.142;-0.974;2022-10-18T06:03:41;19.27;;;3.35;;
51438;SDS011;38816;51.142;-0.974;2022-10-18T06:06:07;7.57;;;3.60;;
51438;SDS011;38816;51.142;-0.974;2022-10-18T06:08:35;19.38;;;3.83;;
51438;SDS011;38816;51.142;-0.974;2022-10-18T06:11:08;18.85;;;3.90;;
51438;SDS011;38816;51.142;-0.974;2022-10-18T06:13:42;18.88;;;4.38;;
51438;SDS011;38816;51.142;-0.974;2022-10-18T06:16:12;33.45;;;3.85;;
51438;SDS011;38816;51.142;-0.974;2022-10-18T06:18:40;17.73;;;3.80;;
51438;SDS011;38816;51.142;-0.974;2022-10-18T06:21:06;46.70;;;4.53;;
51438;SDS011;38816;51.142;-0.974;2022-10-18T06:23:32;13.75;;;3.08;;
51438;SDS011;38816;51.142;-0.974;2022-10-18T06:26:00;13.48;;;2.80;;
51438;SDS011;38816;51.142;-0.974;2022-10-18T06:28:27;10.07;;;2.60;;
51438;SDS011;38816;51.142;-0.974;2022-10-18T06:30:53;5.07;;;2.45;;
51438;SDS011;38816;51.142;-0.974;2022-10-18T06:33:20;6.32;;;2.83;;
51438;SDS011;38816;51.142;-0.974;2022-10-18T06:35:56;6.00;;;2.38;;
51438;SDS011;38816;51.142;-0.974;2022-10-18T06:38:22;11.27;;;2.58;;
51438;SDS011;38816;51.142;-0.974;2022-10-18T06:40:47;12.57;;;2.78;;
51438;SDS011;38816;51.142;-0.974;2022-10-18T06:43:13;83.05;;;4.90;;
51438;SDS011;38816;51.142;-0.974;2022-10-18T06:45:38;15.60;;;4.65;;
51438;SDS011;38816;51.142;-0.974;2022-10-18T06:48:04;27.95;;;3.90;;
51438;SDS011;38816;51.142;-0.974;2022-10-18T06:50:29;32.20;;;5.00;;
51438;SDS011;38816;51.142;-0.974;2022-10-18T06:52:55;12.15;;;3.63;;
51438;SDS011;38816;51.142;-0.974;2022-10-18T06:55:20;39.85;;;4.93;;
51438;SDS011;38816;51.142;-0.974;2022-10-18T06:57:46;13.30;;;3.42;;
51438;SDS011;38816;51.142;-0.974;2022-10-18T07:00:11;23.88;;;3.97;;
51438;SDS011;38816;51.142;-0.974;2022-10-18T07:02:37;18.67;;;3.65;;
51438;SDS011;38816;51.142;-0.974;2022-10-18T07:05:05;7.00;;;3.25;;
51438;SDS011;38816;51.142;-0.974;2022-10-18T07:07:31;29.33;;;4.57;;
51438;SDS011;38816;51.142;-0.974;2022-10-18T07:09:56;6.32;;;2.25;;
51438;SDS011;38816;51.142;-0.974;2022-10-18T07:12:22;8.93;;;3.15;;
51438;SDS011;38816;51.142;-0.974;2022-10-18T07:14:47;9.00;;;3.67;;
51438;SDS011;38816;51.142;-0.974;2022-10-18T07:17:13;17.52;;;3.47;;
51438;SDS011;38816;51.142;-0.974;2022-10-18T07:19:38;13.38;;;4.10;;
51438;SDS011;38816;51.142;-0.974;2022-10-18T07:22:03;14.65;;;4.38;;
51438;SDS011;38816;51.142;-0.974;2022-10-18T07:24:29;30.23;;;4.80;;
51438;SDS011;38816;51.142;-0.974;2022-10-18T07:26:54;15.25;;;3.65;;
51438;SDS011;38816;51.142;-0.974;2022-10-18T07:29:20;18.52;;;4.43;;
51438;SDS011;38816;51.142;-0.974;2022-10-18T07:31:45;19.88;;;4.53;;
51438;SDS011;38816;51.142;-0.974;2022-10-18T07:34:11;34.13;;;4.82;;
51438;SDS011;38816;51.142;-0.974;2022-10-18T07:36:37;33.17;;;4.10;;
51438;SDS011;38816;51.142;-0.974;2022-10-18T07:39:03;36.00;;;5.13;;
51438;SDS011;38816;51.142;-0.974;2022-10-18T07:41:28;32.83;;;4.40;;
51438;SDS011;38816;51.142;-0.974;2022-10-18T07:43:57;46.85;;;5.05;;
51438;SDS011;38816;51.142;-0.974;2022-10-18T07:46:23;43.10;;;4.55;;
51438;SDS011;38816;51.142;-0.974;2022-10-18T07:48:49;60.10;;;4.72;;
51438;SDS011;38816;51.142;-0.974;2022-10-18T07:51:15;44.25;;;5.13;;
51438;SDS011;38816;51.142;-0.974;2022-10-18T07:53:41;24.90;;;4.32;;
51438;SDS011;38816;51.142;-0.974;2022-10-18T07:56:07;40.95;;;4.28;;
51438;SDS011;38816;51.142;-0.974;2022-10-18T07:58:39;23.38;;;4.07;;
51438;SDS011;38816;51.142;-0.974;2022-10-18T08:01:05;20.67;;;4.20;;
51438;SDS011;38816;51.142;-0.974;2022-10-18T08:03:32;30.63;;;4.95;;
51438;SDS011;38816;51.142;-0.974;2022-10-18T08:05:58;24.88;;;3.60;;
51438;SDS011;38816;51.142;-0.974;2022-10-18T08:08:23;16.83;;;3.42;;
51438;SDS011;38816;51.142;-0.974;2022-10-18T08:10:49;20.42;;;3.97;;
51438;SDS011;38816;51.142;-0.974;2022-10-18T08:13:15;19.40;;;3.78;;
51438;SDS011;38816;51.142;-0.974;2022-10-18T08:15:41;19.25;;;3.92;;
51438;SDS011;38816;51.142;-0.974;2022-10-18T08:18:06;29.35;;;4.15;;
51438;SDS011;38816;51.142;-0.974;2022-10-18T08:20:32;19.35;;;3.75;;
51438;SDS011;38816;51.142;-0.974;2022-10-18T08:22:58;24.83;;;4.60;;
51438;SDS011;38816;51.142;-0.974;2022-10-18T08:25:24;13.20;;;3.63;;
51438;SDS011;38816;51.142;-0.974;2022-10-18T08:27:49;33.75;;;3.83;;
51438;SDS011;38816;51.142;-0.974;2022-10-18T08:30:15;16.08;;;3.50;;
51438;SDS011;38816;51.142;-0.974;2022-10-18T08:32:40;24.50;;;3.63;;
51438;SDS011;38816;51.142;-0.974;2022-10-18T08:35:06;18.88;;;4.50;;
51438;SDS011;38816;51.142;-0.974;2022-10-18T08:37:31;108.15;;;4.38;;
51438;SDS011;38816;51.142;-0.974;2022-10-18T08:39:57;45.75;;;4.03;;
51438;SDS011;38816;51.142;-0.974;2022-10-18T08:44:58;65.38;;;4.95;;
51438;SDS011;38816;51.142;-0.974;2022-10-18T08:47:29;46.63;;;4.20;;
51438;SDS011;38816;51.142;-0.974;2022-10-18T08:50:03;67.90;;;4.68;;
51438;SDS011;38816;51.142;-0.974;2022-10-18T08:52:35;57.25;;;4.30;;
51438;SDS011;38816;51.142;-0.974;2022-10-18T08:57:57;86.63;;;6.80;;
51438;SDS011;38816;51.142;-0.974;2022-10-18T09:00:23;111.03;;;6.68;;
51438;SDS011;38816;51.142;-0.974;2022-10-18T09:05:50;135.32;;;7.97;;
51438;SDS011;38816;51.142;-0.974;2022-10-18T09:16:27;64.00;;;6.45;;
51438;SDS011;38816;51.142;-0.974;2022-10-18T09:24:26;35.67;;;6.82;;
51438;SDS011;38816;51.142;-0.974;2022-10-18T09:27:04;37.97;;;6.90;;
51438;SDS011;38816;51.142;-0.974;2022-10-18T09:37:50;94.18;;;8.02;;
51438;SDS011;38816;51.142;-0.974;2022-10-18T09:40:24;145.32;;;9.10;;
51438;SDS011;38816;51.142;-0.974;2022-10-18T09:45:33;55.58;;;7.68;;
51438;SDS011;38816;51.142;-0.974;2022-10-18T09:48:12;33.70;;;7.03;;
51438;SDS011;38816;51.142;-0.974;2022-10-18T09:50:44;23.02;;;7.13;;
51438;SDS011;38816;51.142;-0.974;2022-10-18T09:55:58;19.10;;;8.25;;
51438;SDS011;38816;51.142;-0.974;2022-10-18T09:58:25;21.67;;;8.38;;
51438;SDS011;38816;51.142;-0.974;2022-10-18T10:00:58;23.10;;;8.13;;
51438;SDS011;38816;51.142;-0.974;2022-10-18T10:03:24;19.85;;;8.80;;
51438;SDS011;38816;51.142;-0.974;2022-10-18T10:06:00;19.95;;;7.78;;
51438;SDS011;38816;51.142;-0.974;2022-10-18T10:09:20;14.68;;;7.68;;
51438;SDS011;38816;51.142;-0.974;2022-10-18T10:11:47;22.67;;;7.63;;
51438;SDS011;38816;51.142;-0.974;2022-10-18T10:14:14;26.33;;;7.85;;
51438;SDS011;38816;51.142;-0.974;2022-10-18T10:17:04;24.83;;;7.60;;
51438;SDS011;38816;51.142;-0.974;2022-10-18T10:22:10;21.20;;;7.97;;
51438;SDS011;38816;51.142;-0.974;2022-10-18T10:27:16;19.67;;;6.10;;
51438;SDS011;38816;51.142;-0.974;2022-10-18T10:29:46;24.85;;;6.57;;
51438;SDS011;38816;51.142;-0.974;2022-10-18T10:32:13;20.42;;;5.32;;
51438;SDS011;38816;51.142;-0.974;2022-10-18T10:34:40;19.65;;;5.70;;
51438;SDS011;38816;51.142;-0.974;2022-10-18T10:37:20;19.13;;;5.35;;
51438;SDS011;38816;51.142;-0.974;2022-10-18T10:42:50;20.70;;;4.97;;
51438;SDS011;38816;51.142;-0.974;2022-10-18T10:45:33;20.55;;;4.90;;
51438;SDS011;38816;51.142;-0.974;2022-10-18T10:48:19;25.08;;;4.30;;
51438;SDS011;38816;51.142;-0.974;2022-10-18T10:50:52;22.65;;;5.47;;
51438;SDS011;38816;51.142;-0.974;2022-10-18T10:53:26;15.95;;;3.75;;
51438;SDS011;38816;51.142;-0.974;2022-10-18T10:55:57;19.88;;;4.03;;
51438;SDS011;38816;51.142;-0.974;2022-10-18T10:58:24;20.58;;;3.70;;
51438;SDS011;38816;51.142;-0.974;2022-10-18T11:00:52;15.93;;;3.30;;
51438;SDS011;38816;51.142;-0.974;2022-10-18T11:03:20;20.40;;;3.58;;
51438;SDS011;38816;51.142;-0.974;2022-10-18T11:05:50;16.25;;;2.97;;
51438;SDS011;38816;51.142;-0.974;2022-10-18T11:08:20;20.02;;;2.75;;
51438;SDS011;38816;51.142;-0.974;2022-10-18T11:13:37;18.25;;;3.05;;
51438;SDS011;38816;51.142;-0.974;2022-10-18T11:18:53;17.38;;;3.40;;
51438;SDS011;38816;51.142;-0.974;2022-10-18T11:21:22;21.52;;;4.78;;
51438;SDS011;38816;51.142;-0.974;2022-10-18T11:23:51;13.73;;;3.08;;
51438;SDS011;38816;51.142;-0.974;2022-10-18T11:29:11;16.42;;;3.10;;
51438;SDS011;38816;51.142;-0.974;2022-10-18T11:42:39;12.10;;;2.72;;
51438;SDS011;38816;51.142;-0.974;2022-10-18T11:47:55;19.25;;;3.00;;
51438;SDS011;38816;51.142;-0.974;2022-10-18T11:58:46;7.95;;;2.40;;
51438;SDS011;38816;51.142;-0.974;2022-10-18T12:04:55;9.05;;;2.58;;
51438;SDS011;38816;51.142;-0.974;2022-10-18T12:07:24;12.95;;;2.60;;
51438;SDS011;38816;51.142;-0.974;2022-10-18T12:09:53;7.90;;;1.88;;
51438;SDS011;38816;51.142;-0.974;2022-10-18T12:12:21;11.10;;;2.22;;
51438;SDS011;38816;51.142;-0.974;2022-10-18T12:17:42;9.57;;;2.45;;
51438;SDS011;38816;51.142;-0.974;2022-10-18T12:20:16;14.25;;;2.50;;
51438;SDS011;38816;51.142;-0.974;2022-10-18T12:23:01;11.27;;;1.90;;
51438;SDS011;38816;51.142;-0.974;2022-10-18T12:25:31;6.78;;;2.00;;
51438;SDS011;38816;51.142;-0.974;2022-10-18T12:28:07;7.45;;;2.00;;
51438;SDS011;38816;51.142;-0.974;2022-10-18T12:30:45;8.15;;;2.00;;
51438;SDS011;38816;51.142;-0.974;2022-10-18T12:33:18;4.47;;;1.25;;
51438;SDS011;38816;51.142;-0.974;2022-10-18T12:35:59;5.18;;;1.48;;
51438;SDS011;38816;51.142;-0.974;2022-10-18T12:38:51;8.52;;;1.50;;
51438;SDS011;38816;51.142;-0.974;2022-10-18T12:41:24;9.35;;;1.30;;
51438;SDS011;38816;51.142;-0.974;2022-10-18T12:43:53;5.97;;;1.27;;
51438;SDS011;38816;51.142;-0.974;2022-10-18T12:46:23;4.38;;;1.08;;
51438;SDS011;38816;51.142;-0.974;2022-10-18T12:49:03;5.72;;;1.45;;
51438;SDS011;38816;51.142;-0.974;2022-10-18T12:51:29;4.30;;;1.25;;
51438;SDS011;38816;51.142;-0.974;2022-10-18T12:58:52;4.47;;;1.15;;
51438;SDS011;38816;51.142;-0.974;2022-10-18T13:09:21;10.27;;;1.38;;
51438;SDS011;38816;51.142;-0.974;2022-10-18T13:11:48;7.93;;;1.40;;
51438;SDS011;38816;51.142;-0.974;2022-10-18T13:14:33;7.00;;;1.60;;
51438;SDS011;38816;51.142;-0.974;2022-10-18T13:36:04;10.93;;;1.73;;
51438;SDS011;38816;51.142;-0.974;2022-10-18T13:38:45;7.35;;;2.28;;
51438;SDS011;38816;51.142;-0.974;2022-10-18T13:41:29;7.63;;;1.80;;
51438;SDS011;38816;51.142;-0.974;2022-10-18T13:57:52;5.65;;;1.65;;
51438;SDS011;38816;51.142;-0.974;2022-10-18T14:03:13;5.75;;;1.50;;
51438;SDS011;38816;51.142;-0.974;2022-10-18T14:08:43;7.60;;;1.67;;
51438;SDS011;38816;51.142;-0.974;2022-10-18T14:11:36;8.15;;;1.40;;
51438;SDS011;38816;51.142;-0.974;2022-10-18T14:17:07;8.82;;;1.90;;
51438;SDS011;38816;51.142;-0.974;2022-10-18T14:23:03;7.53;;;1.58;;
51438;SDS011;38816;51.142;-0.974;2022-10-18T14:25:35;4.05;;;1.35;;
51438;SDS011;38816;51.142;-0.974;2022-10-18T14:28:03;10.43;;;2.20;;
51438;SDS011;38816;51.142;-0.974;2022-10-18T14:33:27;6.82;;;1.40;;
51438;SDS011;38816;51.142;-0.974;2022-10-18T14:36:06;5.13;;;1.52;;
51438;SDS011;38816;51.142;-0.974;2022-10-18T14:38:33;6.53;;;1.67;;
51438;SDS011;38816;51.142;-0.974;2022-10-18T14:49:17;4.38;;;1.40;;
51438;SDS011;38816;51.142;-0.974;2022-10-18T14:51:44;7.60;;;1.38;;
51438;SDS011;38816;51.142;-0.974;2022-10-18T14:54:17;5.93;;;1.60;;
51438;SDS011;38816;51.142;-0.974;2022-10-18T14:56:52;10.32;;;1.50;;
51438;SDS011;38816;51.142;-0.974;2022-10-18T14:59:22;8.50;;;1.50;;
51438;SDS011;38816;51.142;-0.974;2022-10-18T15:01:50;9.32;;;2.13;;
51438;SDS011;38816;51.142;-0.974;2022-10-18T15:04:18;6.28;;;1.40;;
51438;SDS011;38816;51.142;-0.974;2022-10-18T15:06:44;5.55;;;1.55;;
51438;SDS011;38816;51.142;-0.974;2022-10-18T15:09:10;8.13;;;1.48;;
51438;SDS011;38816;51.142;-0.974;2022-10-18T15:11:38;8.20;;;1.67;;
51438;SDS011;38816;51.142;-0.974;2022-10-18T15:14:06;5.78;;;1.25;;
51438;SDS011;38816;51.142;-0.974;2022-10-18T15:16:38;8.55;;;1.73;;
51438;SDS011;38816;51.142;-0.974;2022-10-18T15:21:48;5.55;;;1.50;;
51438;SDS011;38816;51.142;-0.974;2022-10-18T15:26:58;7.68;;;1.80;;
51438;SDS011;38816;51.142;-0.974;2022-10-18T15:29:26;8.57;;;1.83;;
51438;SDS011;38816;51.142;-0.974;2022-10-18T15:32:01;11.27;;;1.80;;
51438;SDS011;38816;51.142;-0.974;2022-10-18T15:34:31;7.40;;;1.75;;
51438;SDS011;38816;51.142;-0.974;2022-10-18T15:36:57;6.63;;;1.80;;
51438;SDS011;38816;51.142;-0.974;2022-10-18T15:39:26;7.72;;;1.88;;
51438;SDS011;38816;51.142;-0.974;2022-10-18T15:41:59;7.30;;;1.75;;
51438;SDS011;38816;51.142;-0.974;2022-10-18T15:44:31;7.25;;;1.92;;
51438;SDS011;38816;51.142;-0.974;2022-10-18T15:47:09;5.38;;;1.80;;
51438;SDS011;38816;51.142;-0.974;2022-10-18T15:52:43;4.75;;;1.70;;
51438;SDS011;38816;51.142;-0.974;2022-10-18T15:55:49;9.75;;;2.38;;
51438;SDS011;38816;51.142;-0.974;2022-10-18T15:58:04;10.25;;;1.85;;
51438;SDS011;38816;51.142;-0.974;2022-10-18T16:00:35;9.00;;;2.25;;
51438;SDS011;38816;51.142;-0.974;2022-10-18T16:03:00;6.75;;;1.80;;
51438;SDS011;38816;51.142;-0.974;2022-10-18T16:05:26;6.40;;;2.03;;
51438;SDS011;38816;51.142;-0.974;2022-10-18T16:07:51;10.68;;;2.15;;
51438;SDS011;38816;51.142;-0.974;2022-10-18T16:10:17;5.88;;;1.70;;
51438;SDS011;38816;51.142;-0.974;2022-10-18T16:12:42;9.52;;;2.72;;
51438;SDS011;38816;51.142;-0.974;2022-10-18T16:15:08;9.82;;;2.17;;
51438;SDS011;38816;51.142;-0.974;2022-10-18T16:17:34;8.35;;;2.00;;
51438;SDS011;38816;51.142;-0.974;2022-10-18T16:19:59;6.57;;;1.95;;
51438;SDS011;38816;51.142;-0.974;2022-10-18T16:22:24;7.53;;;2.08;;
51438;SDS011;38816;51.142;-0.974;2022-10-18T16:24:50;7.75;;;2.08;;
51438;SDS011;38816;51.142;-0.974;2022-10-18T16:27:16;13.00;;;2.28;;
51438;SDS011;38816;51.142;-0.974;2022-10-18T16:29:42;7.85;;;2.13;;
51438;SDS011;38816;51.142;-0.974;2022-10-18T16:32:07;11.02;;;1.88;;
51438;SDS011;38816;51.142;-0.974;2022-10-18T16:34:33;9.75;;;2.08;;
51438;SDS011;38816;51.142;-0.974;2022-10-18T16:36:58;11.90;;;2.28;;
51438;SDS011;38816;51.142;-0.974;2022-10-18T16:39:24;11.23;;;2.03;;
51438;SDS011;38816;51.142;-0.974;2022-10-18T16:41:49;10.73;;;2.25;;
51438;SDS011;38816;51.142;-0.974;2022-10-18T16:44:15;10.25;;;2.45;;
51438;SDS011;38816;51.142;-0.974;2022-10-18T16:46:43;11.45;;;2.60;;
51438;SDS011;38816;51.142;-0.974;2022-10-18T16:49:22;10.18;;;2.22;;
51438;SDS011;38816;51.142;-0.974;2022-10-18T16:51:50;8.45;;;2.17;;
51438;SDS011;38816;51.142;-0.974;2022-10-18T16:54:16;8.50;;;2.10;;
51438;SDS011;38816;51.142;-0.974;2022-10-18T16:56:41;9.95;;;2.40;;
51438;SDS011;38816;51.142;-0.974;2022-10-18T16:59:08;10.55;;;2.30;;
51438;SDS011;38816;51.142;-0.974;2022-10-18T17:01:44;10.85;;;1.95;;
51438;SDS011;38816;51.142;-0.974;2022-10-18T17:04:10;8.15;;;2.20;;
51438;SDS011;38816;51.142;-0.974;2022-10-18T17:06:35;11.93;;;2.58;;
51438;SDS011;38816;51.142;-0.974;2022-10-18T17:09:00;7.45;;;2.22;;
51438;SDS011;38816;51.142;-0.974;2022-10-18T17:11:26;11.95;;;2.28;;
51438;SDS011;38816;51.142;-0.974;2022-10-18T17:13:52;8.50;;;2.60;;
51438;SDS011;38816;51.142;-0.974;2022-10-18T17:18:46;11.50;;;2.33;;
51438;SDS011;38816;51.142;-0.974;2022-10-18T17:21:11;8.38;;;2.40;;
51438;SDS011;38816;51.142;-0.974;2022-10-18T17:23:37;10.23;;;2.33;;
51438;SDS011;38816;51.142;-0.974;2022-10-18T17:26:02;14.50;;;2.70;;
51438;SDS011;38816;51.142;-0.974;2022-10-18T17:28:28;7.60;;;2.47;;
51438;SDS011;38816;51.142;-0.974;2022-10-18T17:30:54;7.53;;;2.10;;
51438;SDS011;38816;51.142;-0.974;2022-10-18T17:33:19;14.35;;;2.45;;
51438;SDS011;38816;51.142;-0.974;2022-10-18T17:35:45;12.40;;;2.97;;
51438;SDS011;38816;51.142;-0.974;2022-10-18T17:38:12;10.60;;;2.30;;
51438;SDS011;38816;51.142;-0.974;2022-10-18T17:40:41;9.52;;;2.50;;
51438;SDS011;38816;51.142;-0.974;2022-10-18T17:43:07;11.18;;;2.90;;
51438;SDS011;38816;51.142;-0.974;2022-10-18T17:45:33;11.70;;;2.65;;